sensor_id;sensor_type;location;lat;lon;timestamp;temperature;humidity
72712;SHT30;60828;40.292;17.998;2023-01-10T00:01:09;13.10;85.88
72712;SHT30;60828;40.292;17.998;2023-01-10T00:03:34;13.15;84.68
72712;SHT30;60828;40.292;17.998;2023-01-10T00:06:00;13.17;83.51
72712;SHT30;60828;40.292;17.998;2023-01-10T00:08:25;13.25;80.75
72712;SHT30;60828;40.292;17.998;2023-01-10T00:10:50;13.28;79.90
72712;SHT30;60828;40.292;17.998;2023-01-10T00:13:16;13.20;77.79
72712;SHT30;60828;40.292;17.998;2023-01-10T00:15:51;13.15;77.03
72712;SHT30;60828;40.292;17.998;2023-01-10T00:18:17;13.06;78.16
72712;SHT30;60828;40.292;17.998;2023-01-10T00:20:42;12.97;78.91
72712;SHT30;60828;40.292;17.998;2023-01-10T00:23:11;13.03;78.67
72712;SHT30;60828;40.292;17.998;2023-01-10T00:25:36;12.94;78.87
72712;SHT30;60828;40.292;17.998;2023-01-10T00:28:02;12.84;79.35
72712;SHT30;60828;40.292;17.998;2023-01-10T00:30:51;12.76;79.58
72712;SHT30;60828;40.292;17.998;2023-01-10T00:33:21;12.72;80.34
72712;SHT30;60828;40.292;17.998;2023-01-10T00:35:47;12.66;80.54
72712;SHT30;60828;40.292;17.998;2023-01-10T00:38:12;12.62;81.27
72712;SHT30;60828;40.292;17.998;2023-01-10T00:40:38;12.53;81.85
72712;SHT30;60828;40.292;17.998;2023-01-10T00:43:03;12.46;82.11
72712;SHT30;60828;40.292;17.998;2023-01-10T00:46:04;12.42;81.99
72712;SHT30;60828;40.292;17.998;2023-01-10T00:48:30;12.39;81.77
72712;SHT30;60828;40.292;17.998;2023-01-10T00:50:55;12.42;80.04
72712;SHT30;60828;40.292;17.998;2023-01-10T00:53:20;12.52;77.73
72712;SHT30;60828;40.292;17.998;2023-01-10T00:55:46;12.55;76.32
72712;SHT30;60828;40.292;17.998;2023-01-10T00:58:12;12.55;75.85
72712;SHT30;60828;40.292;17.998;2023-01-10T01:00:37;12.57;73.71
72712;SHT30;60828;40.292;17.998;2023-01-10T01:03:03;12.66;73.01
72712;SHT30;60828;40.292;17.998;2023-01-10T01:05:29;12.73;73.02
72712;SHT30;60828;40.292;17.998;2023-01-10T01:07:54;12.70;73.92
72712;SHT30;60828;40.292;17.998;2023-01-10T01:10:19;12.66;74.39
72712;SHT30;60828;40.292;17.998;2023-01-10T01:12:54;12.75;73.86
72712;SHT30;60828;40.292;17.998;2023-01-10T01:15:20;12.73;74.36
72712;SHT30;60828;40.292;17.998;2023-01-10T01:17:46;12.72;74.86
72712;SHT30;60828;40.292;17.998;2023-01-10T01:20:12;12.67;75.29
72712;SHT30;60828;40.292;17.998;2023-01-10T01:22:37;12.66;75.24
72712;SHT30;60828;40.292;17.998;2023-01-10T01:25:03;12.60;75.34
72712;SHT30;60828;40.292;17.998;2023-01-10T01:27:29;12.60;75.54
72712;SHT30;60828;40.292;17.998;2023-01-10T01:29:54;12.60;75.93
72712;SHT30;60828;40.292;17.998;2023-01-10T01:32:19;12.62;75.55
72712;SHT30;60828;40.292;17.998;2023-01-10T01:34:45;12.63;76.33
72712;SHT30;60828;40.292;17.998;2023-01-10T01:37:11;12.60;76.74
72712;SHT30;60828;40.292;17.998;2023-01-10T01:39:36;12.56;76.66
72712;SHT30;60828;40.292;17.998;2023-01-10T01:42:01;12.48;77.43
72712;SHT30;60828;40.292;17.998;2023-01-10T01:44:29;12.50;77.87
72712;SHT30;60828;40.292;17.998;2023-01-10T01:46:59;12.39;78.14
72712;SHT30;60828;40.292;17.998;2023-01-10T01:49:25;12.44;77.85
72712;SHT30;60828;40.292;17.998;2023-01-10T01:51:53;12.41;77.76
72712;SHT30;60828;40.292;17.998;2023-01-10T01:54:21;12.53;77.54
72712;SHT30;60828;40.292;17.998;2023-01-10T01:56:47;12.53;77.23
72712;SHT30;60828;40.292;17.998;2023-01-10T01:59:23;12.50;77.87
72712;SHT30;60828;40.292;17.998;2023-01-10T02:01:51;12.52;77.66
72712;SHT30;60828;40.292;17.998;2023-01-10T02:04:20;12.48;76.98
72712;SHT30;60828;40.292;17.998;2023-01-10T02:06:46;12.48;77.44
72712;SHT30;60828;40.292;17.998;2023-01-10T02:09:21;12.52;76.78
72712;SHT30;60828;40.292;17.998;2023-01-10T02:11:48;12.42;76.84
72712;SHT30;60828;40.292;17.998;2023-01-10T02:14:13;12.46;75.09
72712;SHT30;60828;40.292;17.998;2023-01-10T02:16:39;12.50;74.26
72712;SHT30;60828;40.292;17.998;2023-01-10T02:19:05;12.50;73.20
72712;SHT30;60828;40.292;17.998;2023-01-10T02:24:07;12.57;73.35
72712;SHT30;60828;40.292;17.998;2023-01-10T02:29:14;12.49;74.50
72712;SHT30;60828;40.292;17.998;2023-01-10T02:41:56;12.21;76.84
72712;SHT30;60828;40.292;17.998;2023-01-10T02:44:26;12.14;77.36
72712;SHT30;60828;40.292;17.998;2023-01-10T02:46:54;12.04;77.89
72712;SHT30;60828;40.292;17.998;2023-01-10T02:49:20;12.01;78.02
72712;SHT30;60828;40.292;17.998;2023-01-10T02:51:45;11.95;77.92
72712;SHT30;60828;40.292;17.998;2023-01-10T02:54:12;11.90;77.94
72712;SHT30;60828;40.292;17.998;2023-01-10T02:59:19;11.90;77.55
72712;SHT30;60828;40.292;17.998;2023-01-10T03:01:51;11.94;77.96
72712;SHT30;60828;40.292;17.998;2023-01-10T03:04:53;11.84;78.23
72712;SHT30;60828;40.292;17.998;2023-01-10T03:09:40;11.79;78.91
72712;SHT30;60828;40.292;17.998;2023-01-10T03:12:09;11.73;78.73
72712;SHT30;60828;40.292;17.998;2023-01-10T03:14:36;11.71;78.68
72712;SHT30;60828;40.292;17.998;2023-01-10T03:17:03;11.73;78.26
72712;SHT30;60828;40.292;17.998;2023-01-10T03:19:32;11.71;77.68
72712;SHT30;60828;40.292;17.998;2023-01-10T03:21:59;11.74;77.23
72712;SHT30;60828;40.292;17.998;2023-01-10T03:24:30;11.74;77.00
72712;SHT30;60828;40.292;17.998;2023-01-10T03:27:02;11.80;76.69
72712;SHT30;60828;40.292;17.998;2023-01-10T03:29:37;11.80;75.92
72712;SHT30;60828;40.292;17.998;2023-01-10T03:32:04;11.77;75.02
72712;SHT30;60828;40.292;17.998;2023-01-10T03:34:31;11.87;73.05
72712;SHT30;60828;40.292;17.998;2023-01-10T03:39:53;11.88;72.03
72712;SHT30;60828;40.292;17.998;2023-01-10T03:47:23;11.98;70.69
72712;SHT30;60828;40.292;17.998;2023-01-10T03:49:55;11.90;70.97
72712;SHT30;60828;40.292;17.998;2023-01-10T03:52:21;11.86;71.54
72712;SHT30;60828;40.292;17.998;2023-01-10T03:54:47;11.87;71.54
72712;SHT30;60828;40.292;17.998;2023-01-10T03:57:19;11.81;71.71
72712;SHT30;60828;40.292;17.998;2023-01-10T03:59:44;11.74;72.03
72712;SHT30;60828;40.292;17.998;2023-01-10T04:02:10;11.70;71.41
72712;SHT30;60828;40.292;17.998;2023-01-10T04:04:35;11.63;71.63
72712;SHT30;60828;40.292;17.998;2023-01-10T04:07:01;11.53;72.20
72712;SHT30;60828;40.292;17.998;2023-01-10T04:09:26;11.42;72.90
72712;SHT30;60828;40.292;17.998;2023-01-10T04:11:52;11.29;73.76
72712;SHT30;60828;40.292;17.998;2023-01-10T04:14:17;11.22;74.49
72712;SHT30;60828;40.292;17.998;2023-01-10T04:16:42;11.16;74.84
72712;SHT30;60828;40.292;17.998;2023-01-10T04:19:08;11.12;75.63
72712;SHT30;60828;40.292;17.998;2023-01-10T04:21:33;11.07;75.76
72712;SHT30;60828;40.292;17.998;2023-01-10T04:23:59;11.07;75.98
72712;SHT30;60828;40.292;17.998;2023-01-10T04:26:24;11.12;75.46
72712;SHT30;60828;40.292;17.998;2023-01-10T04:28:49;11.14;75.84
72712;SHT30;60828;40.292;17.998;2023-01-10T04:31:15;11.03;76.43
72712;SHT30;60828;40.292;17.998;2023-01-10T04:33:40;11.05;76.90
72712;SHT30;60828;40.292;17.998;2023-01-10T04:36:05;11.01;77.15
72712;SHT30;60828;40.292;17.998;2023-01-10T04:38:31;10.97;77.07
72712;SHT30;60828;40.292;17.998;2023-01-10T04:40:56;10.93;77.45
72712;SHT30;60828;40.292;17.998;2023-01-10T04:43:22;10.95;77.17
72712;SHT30;60828;40.292;17.998;2023-01-10T04:45:48;11.05;76.58
72712;SHT30;60828;40.292;17.998;2023-01-10T04:48:13;11.07;76.08
72712;SHT30;60828;40.292;17.998;2023-01-10T04:50:39;11.07;75.69
72712;SHT30;60828;40.292;17.998;2023-01-10T04:53:04;11.18;75.20
72712;SHT30;60828;40.292;17.998;2023-01-10T04:55:30;11.18;75.24
72712;SHT30;60828;40.292;17.998;2023-01-10T04:57:56;11.25;75.09
72712;SHT30;60828;40.292;17.998;2023-01-10T05:00:21;11.28;74.70
72712;SHT30;60828;40.292;17.998;2023-01-10T05:02:47;11.22;75.25
72712;SHT30;60828;40.292;17.998;2023-01-10T05:05:12;11.21;74.98
72712;SHT30;60828;40.292;17.998;2023-01-10T05:07:38;11.28;75.48
72712;SHT30;60828;40.292;17.998;2023-01-10T05:10:04;11.23;74.38
72712;SHT30;60828;40.292;17.998;2023-01-10T05:12:30;11.32;74.14
72712;SHT30;60828;40.292;17.998;2023-01-10T05:14:56;11.29;74.87
72712;SHT30;60828;40.292;17.998;2023-01-10T05:17:21;11.26;74.78
72712;SHT30;60828;40.292;17.998;2023-01-10T05:19:46;11.25;75.46
72712;SHT30;60828;40.292;17.998;2023-01-10T05:22:12;11.22;75.52
72712;SHT30;60828;40.292;17.998;2023-01-10T05:24:37;11.23;75.53
72712;SHT30;60828;40.292;17.998;2023-01-10T05:27:02;11.23;75.95
72712;SHT30;60828;40.292;17.998;2023-01-10T05:29:28;11.21;76.06
72712;SHT30;60828;40.292;17.998;2023-01-10T05:31:53;11.15;76.25
72712;SHT30;60828;40.292;17.998;2023-01-10T05:34:19;11.22;76.54
72712;SHT30;60828;40.292;17.998;2023-01-10T05:36:44;11.21;76.29
72712;SHT30;60828;40.292;17.998;2023-01-10T05:39:09;11.16;76.78
72712;SHT30;60828;40.292;17.998;2023-01-10T05:41:35;11.23;76.80
72712;SHT30;60828;40.292;17.998;2023-01-10T05:44:00;11.12;76.73
72712;SHT30;60828;40.292;17.998;2023-01-10T05:46:25;11.15;77.04
72712;SHT30;60828;40.292;17.998;2023-01-10T05:48:51;11.05;77.60
72712;SHT30;60828;40.292;17.998;2023-01-10T05:51:16;11.07;77.92
72712;SHT30;60828;40.292;17.998;2023-01-10T05:53:42;11.04;77.90
72712;SHT30;60828;40.292;17.998;2023-01-10T05:56:07;11.00;77.83
72712;SHT30;60828;40.292;17.998;2023-01-10T05:58:33;11.01;78.11
72712;SHT30;60828;40.292;17.998;2023-01-10T06:00:58;11.07;78.18
72712;SHT30;60828;40.292;17.998;2023-01-10T06:03:24;11.03;78.56
72712;SHT30;60828;40.292;17.998;2023-01-10T06:05:51;11.00;78.59
72712;SHT30;60828;40.292;17.998;2023-01-10T06:08:16;11.00;78.50
72712;SHT30;60828;40.292;17.998;2023-01-10T06:10:41;11.03;78.49
72712;SHT30;60828;40.292;17.998;2023-01-10T06:13:07;11.01;78.90
72712;SHT30;60828;40.292;17.998;2023-01-10T06:15:34;10.91;79.19
72712;SHT30;60828;40.292;17.998;2023-01-10T06:17:59;10.88;79.21
72712;SHT30;60828;40.292;17.998;2023-01-10T06:20:25;10.88;79.14
72712;SHT30;60828;40.292;17.998;2023-01-10T06:22:50;10.91;79.15
72712;SHT30;60828;40.292;17.998;2023-01-10T06:25:16;10.90;79.00
72712;SHT30;60828;40.292;17.998;2023-01-10T06:27:41;10.93;79.00
72712;SHT30;60828;40.292;17.998;2023-01-10T06:30:07;10.97;78.85
72712;SHT30;60828;40.292;17.998;2023-01-10T06:32:34;10.97;78.94
72712;SHT30;60828;40.292;17.998;2023-01-10T06:34:59;11.00;79.17
72712;SHT30;60828;40.292;17.998;2023-01-10T06:37:24;11.03;78.89
72712;SHT30;60828;40.292;17.998;2023-01-10T06:39:50;11.15;78.58
72712;SHT30;60828;40.292;17.998;2023-01-10T06:42:15;11.14;78.49
72712;SHT30;60828;40.292;17.998;2023-01-10T06:44:41;11.28;78.57
72712;SHT30;60828;40.292;17.998;2023-01-10T06:47:06;11.35;78.08
72712;SHT30;60828;40.292;17.998;2023-01-10T06:49:31;11.36;78.39
72712;SHT30;60828;40.292;17.998;2023-01-10T06:51:57;11.44;77.85
72712;SHT30;60828;40.292;17.998;2023-01-10T06:54:22;11.47;77.61
72712;SHT30;60828;40.292;17.998;2023-01-10T06:56:47;11.50;77.59
72712;SHT30;60828;40.292;17.998;2023-01-10T06:59:13;11.80;76.86
72712;SHT30;60828;40.292;17.998;2023-01-10T07:01:38;12.11;76.01
72712;SHT30;60828;40.292;17.998;2023-01-10T07:04:04;12.52;75.23
72712;SHT30;60828;40.292;17.998;2023-01-10T07:06:29;13.68;73.57
72712;SHT30;60828;40.292;17.998;2023-01-10T07:08:55;14.16;70.33
72712;SHT30;60828;40.292;17.998;2023-01-10T07:11:20;14.04;70.42
72712;SHT30;60828;40.292;17.998;2023-01-10T07:13:46;13.76;70.56
72712;SHT30;60828;40.292;17.998;2023-01-10T07:16:12;13.69;71.72
72712;SHT30;60828;40.292;17.998;2023-01-10T07:18:39;13.66;71.62
72712;SHT30;60828;40.292;17.998;2023-01-10T07:21:05;14.92;68.05
72712;SHT30;60828;40.292;17.998;2023-01-10T07:23:30;15.99;65.09
72712;SHT30;60828;40.292;17.998;2023-01-10T07:25:56;16.51;63.10
72712;SHT30;60828;40.292;17.998;2023-01-10T07:28:22;17.97;59.13
72712;SHT30;60828;40.292;17.998;2023-01-10T07:30:47;19.05;55.36
72712;SHT30;60828;40.292;17.998;2023-01-10T07:33:13;19.70;51.50
72712;SHT30;60828;40.292;17.998;2023-01-10T07:35:38;19.89;52.32
72712;SHT30;60828;40.292;17.998;2023-01-10T07:38:04;19.81;51.54
72712;SHT30;60828;40.292;17.998;2023-01-10T07:40:29;19.05;54.13
72712;SHT30;60828;40.292;17.998;2023-01-10T07:42:58;20.57;49.99
72712;SHT30;60828;40.292;17.998;2023-01-10T07:45:24;21.99;47.81
72712;SHT30;60828;40.292;17.998;2023-01-10T07:47:54;19.43;51.92
72712;SHT30;60828;40.292;17.998;2023-01-10T07:50:20;16.53;59.71
72712;SHT30;60828;40.292;17.998;2023-01-10T07:52:45;15.17;63.82
72712;SHT30;60828;40.292;17.998;2023-01-10T07:55:11;14.88;65.37
72712;SHT30;60828;40.292;17.998;2023-01-10T07:57:36;16.44;62.28
72712;SHT30;60828;40.292;17.998;2023-01-10T08:00:02;18.29;56.91
72712;SHT30;60828;40.292;17.998;2023-01-10T08:02:27;20.34;51.89
72712;SHT30;60828;40.292;17.998;2023-01-10T08:04:53;21.92;48.82
72712;SHT30;60828;40.292;17.998;2023-01-10T08:07:18;23.77;43.77
72712;SHT30;60828;40.292;17.998;2023-01-10T08:09:46;24.12;43.84
72712;SHT30;60828;40.292;17.998;2023-01-10T08:12:11;24.09;42.95
72712;SHT30;60828;40.292;17.998;2023-01-10T08:14:37;22.06;45.88
72712;SHT30;60828;40.292;17.998;2023-01-10T08:17:02;18.84;52.50
72712;SHT30;60828;40.292;17.998;2023-01-10T08:19:27;17.32;57.37
72712;SHT30;60828;40.292;17.998;2023-01-10T08:21:53;18.60;55.45
72712;SHT30;60828;40.292;17.998;2023-01-10T08:24:18;18.90;54.18
72712;SHT30;60828;40.292;17.998;2023-01-10T08:26:44;17.15;58.75
72712;SHT30;60828;40.292;17.998;2023-01-10T08:29:09;15.81;61.71
72712;SHT30;60828;40.292;17.998;2023-01-10T08:31:34;14.71;65.50
72712;SHT30;60828;40.292;17.998;2023-01-10T08:34:00;14.03;67.59
72712;SHT30;60828;40.292;17.998;2023-01-10T08:36:25;13.73;69.27
72712;SHT30;60828;40.292;17.998;2023-01-10T08:38:53;13.27;69.70
72712;SHT30;60828;40.292;17.998;2023-01-10T08:41:19;13.48;69.86
72712;SHT30;60828;40.292;17.998;2023-01-10T08:43:44;13.59;69.37
72712;SHT30;60828;40.292;17.998;2023-01-10T08:46:12;13.66;68.86
72712;SHT30;60828;40.292;17.998;2023-01-10T08:48:38;13.79;68.54
72712;SHT30;60828;40.292;17.998;2023-01-10T08:51:04;13.72;68.27
72712;SHT30;60828;40.292;17.998;2023-01-10T08:53:29;14.27;67.92
72712;SHT30;60828;40.292;17.998;2023-01-10T08:55:56;14.31;66.56
72712;SHT30;60828;40.292;17.998;2023-01-10T08:58:23;15.84;63.54
72712;SHT30;60828;40.292;17.998;2023-01-10T09:00:49;18.38;56.43
72712;SHT30;60828;40.292;17.998;2023-01-10T09:03:15;19.65;52.85
72712;SHT30;60828;40.292;17.998;2023-01-10T09:05:40;19.89;51.09
72712;SHT30;60828;40.292;17.998;2023-01-10T09:08:06;19.45;50.53
72712;SHT30;60828;40.292;17.998;2023-01-10T09:10:31;20.00;49.50
72712;SHT30;60828;40.292;17.998;2023-01-10T09:12:57;21.41;46.66
72712;SHT30;60828;40.292;17.998;2023-01-10T09:15:26;21.66;45.97
72712;SHT30;60828;40.292;17.998;2023-01-10T09:17:55;20.06;49.82
72712;SHT30;60828;40.292;17.998;2023-01-10T09:20:22;18.53;52.38
72712;SHT30;60828;40.292;17.998;2023-01-10T09:22:47;17.53;55.42
72712;SHT30;60828;40.292;17.998;2023-01-10T09:25:13;16.53;57.60
72712;SHT30;60828;40.292;17.998;2023-01-10T09:27:38;16.26;59.57
72712;SHT30;60828;40.292;17.998;2023-01-10T09:30:04;16.09;60.13
72712;SHT30;60828;40.292;17.998;2023-01-10T09:32:30;15.69;60.97
72712;SHT30;60828;40.292;17.998;2023-01-10T09:34:55;15.22;61.65
72712;SHT30;60828;40.292;17.998;2023-01-10T09:37:20;15.22;62.41
72712;SHT30;60828;40.292;17.998;2023-01-10T09:39:45;15.31;62.12
72712;SHT30;60828;40.292;17.998;2023-01-10T09:47:26;15.75;61.08
72712;SHT30;60828;40.292;17.998;2023-01-10T09:52:36;16.26;60.20
72712;SHT30;60828;40.292;17.998;2023-01-10T09:58:06;17.05;58.02
72712;SHT30;60828;40.292;17.998;2023-01-10T10:00:36;16.70;57.78
72712;SHT30;60828;40.292;17.998;2023-01-10T10:03:03;16.50;59.37
72712;SHT30;60828;40.292;17.998;2023-01-10T10:05:29;16.71;59.71
72712;SHT30;60828;40.292;17.998;2023-01-10T10:07:59;16.24;59.89
72712;SHT30;60828;40.292;17.998;2023-01-10T10:10:30;15.99;61.70
72712;SHT30;60828;40.292;17.998;2023-01-10T10:15:43;14.49;64.05
72712;SHT30;60828;40.292;17.998;2023-01-10T10:20:59;14.02;67.20
72712;SHT30;60828;40.292;17.998;2023-01-10T10:26:08;14.34;66.72
72712;SHT30;60828;40.292;17.998;2023-01-10T10:28:55;14.41;65.29
72712;SHT30;60828;40.292;17.998;2023-01-10T10:31:38;14.31;64.72
72712;SHT30;60828;40.292;17.998;2023-01-10T10:34:13;14.51;64.41
72712;SHT30;60828;40.292;17.998;2023-01-10T10:36:46;14.21;64.31
72712;SHT30;60828;40.292;17.998;2023-01-10T10:39:16;14.33;65.43
72712;SHT30;60828;40.292;17.998;2023-01-10T10:41:44;14.02;65.18
72712;SHT30;60828;40.292;17.998;2023-01-10T10:46:56;13.83;66.07
72712;SHT30;60828;40.292;17.998;2023-01-10T10:51:56;13.65;66.46
72712;SHT30;60828;40.292;17.998;2023-01-10T10:54:22;13.75;66.13
72712;SHT30;60828;40.292;17.998;2023-01-10T10:56:47;13.86;66.11
72712;SHT30;60828;40.292;17.998;2023-01-10T10:59:16;14.02;65.77
72712;SHT30;60828;40.292;17.998;2023-01-10T11:01:44;13.82;63.70
72712;SHT30;60828;40.292;17.998;2023-01-10T11:04:13;13.70;63.51
72712;SHT30;60828;40.292;17.998;2023-01-10T11:06:39;13.86;64.44
72712;SHT30;60828;40.292;17.998;2023-01-10T11:09:12;14.02;64.40
72712;SHT30;60828;40.292;17.998;2023-01-10T11:11:44;14.18;64.16
72712;SHT30;60828;40.292;17.998;2023-01-10T11:14:10;14.18;64.18
72712;SHT30;60828;40.292;17.998;2023-01-10T11:16:40;14.21;65.02
72712;SHT30;60828;40.292;17.998;2023-01-10T11:21:34;14.49;64.64
72712;SHT30;60828;40.292;17.998;2023-01-10T11:23:59;14.62;64.57
72712;SHT30;60828;40.292;17.998;2023-01-10T11:26:37;14.64;63.87
72712;SHT30;60828;40.292;17.998;2023-01-10T11:29:15;14.85;63.57
72712;SHT30;60828;40.292;17.998;2023-01-10T11:31:41;15.07;62.93
72712;SHT30;60828;40.292;17.998;2023-01-10T11:37:11;15.23;61.20
72712;SHT30;60828;40.292;17.998;2023-01-10T11:39:41;15.44;60.82
72712;SHT30;60828;40.292;17.998;2023-01-10T11:45:19;15.38;59.39
72712;SHT30;60828;40.292;17.998;2023-01-10T11:48:30;15.13;59.39
72712;SHT30;60828;40.292;17.998;2023-01-10T11:50:35;15.03;60.22
72712;SHT30;60828;40.292;17.998;2023-01-10T11:53:00;14.78;60.44
72712;SHT30;60828;40.292;17.998;2023-01-10T11:55:27;14.71;61.02
72712;SHT30;60828;40.292;17.998;2023-01-10T12:00:21;14.55;60.82
72712;SHT30;60828;40.292;17.998;2023-01-10T12:02:46;14.46;56.42
72712;SHT30;60828;40.292;17.998;2023-01-10T12:05:19;14.16;54.97
72712;SHT30;60828;40.292;17.998;2023-01-10T12:08:03;14.10;56.88
72712;SHT30;60828;40.292;17.998;2023-01-10T12:10:31;14.16;58.15
72712;SHT30;60828;40.292;17.998;2023-01-10T12:12:57;14.10;59.47
72712;SHT30;60828;40.292;17.998;2023-01-10T12:15:27;14.03;59.27
72712;SHT30;60828;40.292;17.998;2023-01-10T12:17:56;13.79;60.12
72712;SHT30;60828;40.292;17.998;2023-01-10T12:20:22;13.82;61.60
72712;SHT30;60828;40.292;17.998;2023-01-10T12:22:51;14.04;62.59
72712;SHT30;60828;40.292;17.998;2023-01-10T12:25:21;14.06;62.36
72712;SHT30;60828;40.292;17.998;2023-01-10T12:27:47;14.09;62.92
72712;SHT30;60828;40.292;17.998;2023-01-10T12:32:47;13.75;63.35
72712;SHT30;60828;40.292;17.998;2023-01-10T12:35:17;13.77;63.98
72712;SHT30;60828;40.292;17.998;2023-01-10T12:37:47;13.70;64.17
72712;SHT30;60828;40.292;17.998;2023-01-10T12:43:20;13.51;64.73
72712;SHT30;60828;40.292;17.998;2023-01-10T12:46:23;13.41;65.08
72712;SHT30;60828;40.292;17.998;2023-01-10T12:49:05;13.45;65.38
72712;SHT30;60828;40.292;17.998;2023-01-10T12:51:32;13.52;65.28
72712;SHT30;60828;40.292;17.998;2023-01-10T12:54:02;13.48;65.85
72712;SHT30;60828;40.292;17.998;2023-01-10T12:56:28;13.37;66.39
72712;SHT30;60828;40.292;17.998;2023-01-10T12:58:59;13.45;66.45
72712;SHT30;60828;40.292;17.998;2023-01-10T13:01:28;13.58;67.03
72712;SHT30;60828;40.292;17.998;2023-01-10T13:03:56;13.55;66.66
72712;SHT30;60828;40.292;17.998;2023-01-10T13:06:26;13.57;67.37
72712;SHT30;60828;40.292;17.998;2023-01-10T13:08:53;13.55;67.96
72712;SHT30;60828;40.292;17.998;2023-01-10T13:11:19;13.37;68.51
72712;SHT30;60828;40.292;17.998;2023-01-10T13:13:48;13.38;69.28
72712;SHT30;60828;40.292;17.998;2023-01-10T13:16:32;12.83;70.87
72712;SHT30;60828;40.292;17.998;2023-01-10T13:19:01;12.76;71.68
72712;SHT30;60828;40.292;17.998;2023-01-10T13:21:27;12.59;71.83
72712;SHT30;60828;40.292;17.998;2023-01-10T13:23:56;12.52;72.05
72712;SHT30;60828;40.292;17.998;2023-01-10T13:26:22;12.46;73.00
72712;SHT30;60828;40.292;17.998;2023-01-10T13:28:57;12.31;72.80
72712;SHT30;60828;40.292;17.998;2023-01-10T13:31:32;12.34;73.39
72712;SHT30;60828;40.292;17.998;2023-01-10T13:36:27;12.39;73.60
72712;SHT30;60828;40.292;17.998;2023-01-10T13:39:00;12.32;74.27
72712;SHT30;60828;40.292;17.998;2023-01-10T13:44:30;12.34;74.20
72712;SHT30;60828;40.292;17.998;2023-01-10T13:47:40;12.50;74.19
72712;SHT30;60828;40.292;17.998;2023-01-10T13:50:00;12.62;73.81
72712;SHT30;60828;40.292;17.998;2023-01-10T13:52:27;12.67;74.22
72712;SHT30;60828;40.292;17.998;2023-01-10T13:54:57;12.62;75.37
72712;SHT30;60828;40.292;17.998;2023-01-10T14:00:19;12.28;76.18
72712;SHT30;60828;40.292;17.998;2023-01-10T14:03:04;12.22;76.91
72712;SHT30;60828;40.292;17.998;2023-01-10T14:05:29;12.28;76.87
72712;SHT30;60828;40.292;17.998;2023-01-10T14:07:54;12.29;77.41
72712;SHT30;60828;40.292;17.998;2023-01-10T14:10:23;12.34;77.91
72712;SHT30;60828;40.292;17.998;2023-01-10T14:15:27;12.18;78.67
72712;SHT30;60828;40.292;17.998;2023-01-10T14:17:58;12.13;79.39
72712;SHT30;60828;40.292;17.998;2023-01-10T14:20:23;11.90;79.80
72712;SHT30;60828;40.292;17.998;2023-01-10T14:22:56;11.79;80.30
72712;SHT30;60828;40.292;17.998;2023-01-10T14:25:22;11.71;81.03
72712;SHT30;60828;40.292;17.998;2023-01-10T14:27:49;11.84;81.18
72712;SHT30;60828;40.292;17.998;2023-01-10T14:32:45;11.90;81.39
72712;SHT30;60828;40.292;17.998;2023-01-10T14:35:16;12.01;80.92
72712;SHT30;60828;40.292;17.998;2023-01-10T14:37:46;12.13;80.84
72712;SHT30;60828;40.292;17.998;2023-01-10T14:40:23;12.32;80.78
72712;SHT30;60828;40.292;17.998;2023-01-10T14:42:49;12.26;80.69
72712;SHT30;60828;40.292;17.998;2023-01-10T14:47:41;12.04;80.75
72712;SHT30;60828;40.292;17.998;2023-01-10T14:50:21;12.00;80.42
72712;SHT30;60828;40.292;17.998;2023-01-10T14:52:46;11.86;80.79
72712;SHT30;60828;40.292;17.998;2023-01-10T14:57:37;11.71;81.33
72712;SHT30;60828;40.292;17.998;2023-01-10T15:00:12;11.67;81.50
72712;SHT30;60828;40.292;17.998;2023-01-10T15:02:42;11.70;81.52
72712;SHT30;60828;40.292;17.998;2023-01-10T15:05:11;11.65;81.78
72712;SHT30;60828;40.292;17.998;2023-01-10T15:07:39;11.65;81.72
72712;SHT30;60828;40.292;17.998;2023-01-10T15:12:50;11.60;82.12
72712;SHT30;60828;40.292;17.998;2023-01-10T15:15:18;11.50;82.31
72712;SHT30;60828;40.292;17.998;2023-01-10T15:17:43;11.53;82.37
72712;SHT30;60828;40.292;17.998;2023-01-10T15:20:15;11.50;82.47
72712;SHT30;60828;40.292;17.998;2023-01-10T15:23:02;11.52;82.52
72712;SHT30;60828;40.292;17.998;2023-01-10T15:25:28;11.49;82.48
72712;SHT30;60828;40.292;17.998;2023-01-10T15:27:55;11.44;82.77
72712;SHT30;60828;40.292;17.998;2023-01-10T15:30:22;11.38;83.27
72712;SHT30;60828;40.292;17.998;2023-01-10T15:32:49;11.33;83.31
72712;SHT30;60828;40.292;17.998;2023-01-10T15:35:14;11.31;83.35
72712;SHT30;60828;40.292;17.998;2023-01-10T15:37:48;11.29;83.44
72712;SHT30;60828;40.292;17.998;2023-01-10T15:40:49;11.33;83.32
72712;SHT30;60828;40.292;17.998;2023-01-10T15:45:34;11.29;80.90
72712;SHT30;60828;40.292;17.998;2023-01-10T15:48:03;11.12;76.15
72712;SHT30;60828;40.292;17.998;2023-01-10T15:50:32;10.94;75.53
72712;SHT30;60828;40.292;17.998;2023-01-10T15:53:05;10.66;75.95
72712;SHT30;60828;40.292;17.998;2023-01-10T15:55:46;9.90;77.50
72712;SHT30;60828;40.292;17.998;2023-01-10T15:58:28;9.71;78.66
72712;SHT30;60828;40.292;17.998;2023-01-10T16:00:54;9.73;81.07
72712;SHT30;60828;40.292;17.998;2023-01-10T16:03:21;9.77;82.79
72712;SHT30;60828;40.292;17.998;2023-01-10T16:05:51;9.88;83.43
72712;SHT30;60828;40.292;17.998;2023-01-10T16:08:19;9.94;84.18
72712;SHT30;60828;40.292;17.998;2023-01-10T16:10:50;9.98;84.69
72712;SHT30;60828;40.292;17.998;2023-01-10T16:13:16;10.06;85.00
72712;SHT30;60828;40.292;17.998;2023-01-10T16:15:56;10.08;84.94
72712;SHT30;60828;40.292;17.998;2023-01-10T16:18:21;10.03;85.32
72712;SHT30;60828;40.292;17.998;2023-01-10T16:20:48;10.09;85.30
72712;SHT30;60828;40.292;17.998;2023-01-10T16:23:16;10.16;85.38
72712;SHT30;60828;40.292;17.998;2023-01-10T16:25:46;10.18;85.56
72712;SHT30;60828;40.292;17.998;2023-01-10T16:28:13;10.16;85.84
72712;SHT30;60828;40.292;17.998;2023-01-10T16:30:38;10.13;85.72
72712;SHT30;60828;40.292;17.998;2023-01-10T16:33:19;10.13;86.05
72712;SHT30;60828;40.292;17.998;2023-01-10T16:35:48;10.23;85.43
72712;SHT30;60828;40.292;17.998;2023-01-10T16:38:14;10.28;85.35
72712;SHT30;60828;40.292;17.998;2023-01-10T16:40:41;10.28;85.50
72712;SHT30;60828;40.292;17.998;2023-01-10T16:43:08;10.33;85.71
72712;SHT30;60828;40.292;17.998;2023-01-10T16:45:46;10.33;85.89
72712;SHT30;60828;40.292;17.998;2023-01-10T16:48:12;10.19;86.30
72712;SHT30;60828;40.292;17.998;2023-01-10T16:50:38;10.18;85.85
72712;SHT30;60828;40.292;17.998;2023-01-10T16:53:03;10.11;85.38
72712;SHT30;60828;40.292;17.998;2023-01-10T16:55:35;10.19;85.18